sensor_id;sensor_type;location;lat;lon;timestamp;temperature;humidity
17740;DHT22;8990;33.226;-97.150;2023-12-04T00:00:05;15.20;99.90
17740;DHT22;8990;33.226;-97.150;2023-12-04T00:02:40;15.00;99.90
17740;DHT22;8990;33.226;-97.150;2023-12-04T00:05:09;15.00;99.90
17740;DHT22;8990;33.226;-97.150;2023-12-04T00:07:38;14.90;99.90
17740;DHT22;8990;33.226;-97.150;2023-12-04T00:10:08;14.70;99.90
17740;DHT22;8990;33.226;-97.150;2023-12-04T00:12:37;14.70;99.90
17740;DHT22;8990;33.226;-97.150;2023-12-04T00:15:07;14.60;99.90
17740;DHT22;8990;33.226;-97.150;2023-12-04T00:17:36;14.40;99.90
17740;DHT22;8990;33.226;-97.150;2023-12-04T00:20:09;14.40;99.90
17740;DHT22;8990;33.226;-97.150;2023-12-04T00:22:38;14.20;99.90
17740;DHT22;8990;33.226;-97.150;2023-12-04T00:25:08;14.30;99.90
17740;DHT22;8990;33.226;-97.150;2023-12-04T00:27:37;14.10;99.90
17740;DHT22;8990;33.226;-97.150;2023-12-04T00:30:06;14.00;99.90
17740;DHT22;8990;33.226;-97.150;2023-12-04T00:32:35;14.00;99.90
17740;DHT22;8990;33.226;-97.150;2023-12-04T00:35:05;13.70;99.90
17740;DHT22;8990;33.226;-97.150;2023-12-04T00:37:35;13.50;99.90
17740;DHT22;8990;33.226;-97.150;2023-12-04T00:40:06;13.60;99.90
17740;DHT22;8990;33.226;-97.150;2023-12-04T00:42:35;13.50;99.90
17740;DHT22;8990;33.226;-97.150;2023-12-04T00:45:05;13.50;99.90
17740;DHT22;8990;33.226;-97.150;2023-12-04T00:47:34;13.40;99.90
17740;DHT22;8990;33.226;-97.150;2023-12-04T00:50:04;13.30;99.90
17740;DHT22;8990;33.226;-97.150;2023-12-04T00:52:33;13.30;99.90
17740;DHT22;8990;33.226;-97.150;2023-12-04T00:55:04;13.20;99.90
17740;DHT22;8990;33.226;-97.150;2023-12-04T00:57:33;13.10;99.90
17740;DHT22;8990;33.226;-97.150;2023-12-04T01:00:02;13.20;99.90
17740;DHT22;8990;33.226;-97.150;2023-12-04T01:02:31;13.20;99.90
17740;DHT22;8990;33.226;-97.150;2023-12-04T01:05:00;13.10;99.90
17740;DHT22;8990;33.226;-97.150;2023-12-04T01:07:29;13.20;99.90
17740;DHT22;8990;33.226;-97.150;2023-12-04T01:09:58;13.20;99.90
17740;DHT22;8990;33.226;-97.150;2023-12-04T01:12:29;13.20;99.90
17740;DHT22;8990;33.226;-97.150;2023-12-04T01:14:58;13.20;99.90
17740;DHT22;8990;33.226;-97.150;2023-12-04T01:17:26;13.20;99.90
17740;DHT22;8990;33.226;-97.150;2023-12-04T01:19:56;13.10;99.90
17740;DHT22;8990;33.226;-97.150;2023-12-04T01:22:25;13.10;99.90
17740;DHT22;8990;33.226;-97.150;2023-12-04T01:24:54;13.00;99.90
17740;DHT22;8990;33.226;-97.150;2023-12-04T01:27:23;13.00;99.90
17740;DHT22;8990;33.226;-97.150;2023-12-04T01:29:54;12.90;99.90
17740;DHT22;8990;33.226;-97.150;2023-12-04T01:32:23;13.00;99.90
17740;DHT22;8990;33.226;-97.150;2023-12-04T01:34:52;12.90;99.90
17740;DHT22;8990;33.226;-97.150;2023-12-04T01:37:22;12.90;99.90
17740;DHT22;8990;33.226;-97.150;2023-12-04T01:39:51;12.90;99.90
17740;DHT22;8990;33.226;-97.150;2023-12-04T01:42:20;12.80;99.90
17740;DHT22;8990;33.226;-97.150;2023-12-04T01:44:49;12.80;99.90
17740;DHT22;8990;33.226;-97.150;2023-12-04T01:47:20;12.80;99.90
17740;DHT22;8990;33.226;-97.150;2023-12-04T01:49:49;12.90;99.90
17740;DHT22;8990;33.226;-97.150;2023-12-04T01:52:18;13.00;99.90
17740;DHT22;8990;33.226;-97.150;2023-12-04T01:54:48;13.00;99.90
17740;DHT22;8990;33.226;-97.150;2023-12-04T01:57:17;13.10;99.90
17740;DHT22;8990;33.226;-97.150;2023-12-04T01:59:47;13.10;99.90
17740;DHT22;8990;33.226;-97.150;2023-12-04T02:02:16;13.20;99.90
17740;DHT22;8990;33.226;-97.150;2023-12-04T02:04:48;13.30;99.90
17740;DHT22;8990;33.226;-97.150;2023-12-04T02:07:17;13.30;99.90
17740;DHT22;8990;33.226;-97.150;2023-12-04T02:09:46;13.30;99.90
17740;DHT22;8990;33.226;-97.150;2023-12-04T02:12:15;13.30;99.90
17740;DHT22;8990;33.226;-97.150;2023-12-04T02:14:45;13.30;99.90
17740;DHT22;8990;33.226;-97.150;2023-12-04T02:17:14;13.40;99.90
17740;DHT22;8990;33.226;-97.150;2023-12-04T02:19:45;13.30;99.90
17740;DHT22;8990;33.226;-97.150;2023-12-04T02:22:15;13.30;99.90
17740;DHT22;8990;33.226;-97.150;2023-12-04T02:24:47;13.30;99.90
17740;DHT22;8990;33.226;-97.150;2023-12-04T02:27:20;13.20;99.90
17740;DHT22;8990;33.226;-97.150;2023-12-04T02:29:59;13.30;99.90
17740;DHT22;8990;33.226;-97.150;2023-12-04T02:32:31;13.20;99.90
17740;DHT22;8990;33.226;-97.150;2023-12-04T02:35:04;13.20;99.90
17740;DHT22;8990;33.226;-97.150;2023-12-04T02:37:34;13.10;99.90
17740;DHT22;8990;33.226;-97.150;2023-12-04T02:40:06;13.00;99.90
17740;DHT22;8990;33.226;-97.150;2023-12-04T02:42:36;13.10;99.90
17740;DHT22;8990;33.226;-97.150;2023-12-04T02:45:05;13.00;99.90
17740;DHT22;8990;33.226;-97.150;2023-12-04T02:47:37;13.10;99.90
17740;DHT22;8990;33.226;-97.150;2023-12-04T02:50:07;13.00;99.90
17740;DHT22;8990;33.226;-97.150;2023-12-04T02:52:36;13.00;99.90
17740;DHT22;8990;33.226;-97.150;2023-12-04T02:55:07;13.00;99.90
17740;DHT22;8990;33.226;-97.150;2023-12-04T02:57:36;12.90;99.90
17740;DHT22;8990;33.226;-97.150;2023-12-04T03:00:06;13.00;99.90
17740;DHT22;8990;33.226;-97.150;2023-12-04T03:02:36;12.90;99.90
17740;DHT22;8990;33.226;-97.150;2023-12-04T03:05:05;13.00;99.90
17740;DHT22;8990;33.226;-97.150;2023-12-04T03:07:35;12.90;99.90
17740;DHT22;8990;33.226;-97.150;2023-12-04T03:10:07;12.90;99.90
17740;DHT22;8990;33.226;-97.150;2023-12-04T03:12:36;12.90;99.90
17740;DHT22;8990;33.226;-97.150;2023-12-04T03:15:05;12.90;99.90
17740;DHT22;8990;33.226;-97.150;2023-12-04T03:17:34;12.80;99.90
17740;DHT22;8990;33.226;-97.150;2023-12-04T03:20:04;12.90;99.90
17740;DHT22;8990;33.226;-97.150;2023-12-04T03:22:36;12.80;99.90
17740;DHT22;8990;33.226;-97.150;2023-12-04T03:25:07;12.70;99.90
17740;DHT22;8990;33.226;-97.150;2023-12-04T03:27:37;12.80;99.90
17740;DHT22;8990;33.226;-97.150;2023-12-04T03:30:07;12.80;99.90
17740;DHT22;8990;33.226;-97.150;2023-12-04T03:32:36;13.00;99.90
17740;DHT22;8990;33.226;-97.150;2023-12-04T03:35:05;13.00;99.90
17740;DHT22;8990;33.226;-97.150;2023-12-04T03:37:34;13.00;99.90
17740;DHT22;8990;33.226;-97.150;2023-12-04T03:40:03;13.40;99.90
17740;DHT22;8990;33.226;-97.150;2023-12-04T03:42:34;13.60;99.90
17740;DHT22;8990;33.226;-97.150;2023-12-04T03:45:03;13.70;99.90
17740;DHT22;8990;33.226;-97.150;2023-12-04T03:47:32;13.70;99.90
17740;DHT22;8990;33.226;-97.150;2023-12-04T03:50:01;13.70;99.90
17740;DHT22;8990;33.226;-97.150;2023-12-04T03:52:30;13.70;99.90
17740;DHT22;8990;33.226;-97.150;2023-12-04T03:54:59;13.70;99.90
17740;DHT22;8990;33.226;-97.150;2023-12-04T03:57:28;13.70;99.90
17740;DHT22;8990;33.226;-97.150;2023-12-04T03:59:58;13.80;99.90
17740;DHT22;8990;33.226;-97.150;2023-12-04T04:02:27;13.70;99.90
17740;DHT22;8990;33.226;-97.150;2023-12-04T04:04:56;13.60;99.90
17740;DHT22;8990;33.226;-97.150;2023-12-04T04:07:25;13.50;99.90
17740;DHT22;8990;33.226;-97.150;2023-12-04T04:09:55;13.50;99.90
17740;DHT22;8990;33.226;-97.150;2023-12-04T04:12:24;13.40;99.90
17740;DHT22;8990;33.226;-97.150;2023-12-04T04:14:53;13.40;99.90
17740;DHT22;8990;33.226;-97.150;2023-12-04T04:17:23;13.40;99.90
17740;DHT22;8990;33.226;-97.150;2023-12-04T04:19:53;13.30;99.90
17740;DHT22;8990;33.226;-97.150;2023-12-04T04:22:23;13.20;99.90
17740;DHT22;8990;33.226;-97.150;2023-12-04T04:24:52;13.10;99.90
17740;DHT22;8990;33.226;-97.150;2023-12-04T04:27:21;13.10;99.90
17740;DHT22;8990;33.226;-97.150;2023-12-04T04:29:50;13.00;99.90
17740;DHT22;8990;33.226;-97.150;2023-12-04T04:32:20;12.90;99.90
17740;DHT22;8990;33.226;-97.150;2023-12-04T04:34:50;12.90;99.90
17740;DHT22;8990;33.226;-97.150;2023-12-04T04:37:20;12.80;99.90
17740;DHT22;8990;33.226;-97.150;2023-12-04T04:39:50;12.70;99.90
17740;DHT22;8990;33.226;-97.150;2023-12-04T04:42:19;12.70;99.90
17740;DHT22;8990;33.226;-97.150;2023-12-04T04:44:48;12.70;99.90
17740;DHT22;8990;33.226;-97.150;2023-12-04T04:47:17;12.50;99.90
17740;DHT22;8990;33.226;-97.150;2023-12-04T04:49:46;12.50;99.90
17740;DHT22;8990;33.226;-97.150;2023-12-04T04:52:16;12.40;99.90
17740;DHT22;8990;33.226;-97.150;2023-12-04T04:54:45;12.40;99.90
17740;DHT22;8990;33.226;-97.150;2023-12-04T04:57:14;12.30;99.90
17740;DHT22;8990;33.226;-97.150;2023-12-04T04:59:43;12.20;99.90
17740;DHT22;8990;33.226;-97.150;2023-12-04T05:02:12;12.20;99.90
17740;DHT22;8990;33.226;-97.150;2023-12-04T05:04:42;12.30;99.90
17740;DHT22;8990;33.226;-97.150;2023-12-04T05:07:10;12.20;99.90
17740;DHT22;8990;33.226;-97.150;2023-12-04T05:09:41;12.20;99.90
17740;DHT22;8990;33.226;-97.150;2023-12-04T05:12:10;12.20;99.90
17740;DHT22;8990;33.226;-97.150;2023-12-04T05:14:39;12.10;99.90
17740;DHT22;8990;33.226;-97.150;2023-12-04T05:17:08;12.00;99.90
17740;DHT22;8990;33.226;-97.150;2023-12-04T05:19:37;12.10;99.90
17740;DHT22;8990;33.226;-97.150;2023-12-04T05:22:07;12.00;99.90
17740;DHT22;8990;33.226;-97.150;2023-12-04T05:24:36;11.90;99.90
17740;DHT22;8990;33.226;-97.150;2023-12-04T05:27:06;11.80;99.90
17740;DHT22;8990;33.226;-97.150;2023-12-04T05:29:35;11.80;99.90
17740;DHT22;8990;33.226;-97.150;2023-12-04T05:32:05;11.80;99.90
17740;DHT22;8990;33.226;-97.150;2023-12-04T05:34:34;11.70;99.90
17740;DHT22;8990;33.226;-97.150;2023-12-04T05:37:03;11.60;99.90
17740;DHT22;8990;33.226;-97.150;2023-12-04T05:39:32;11.50;99.90
17740;DHT22;8990;33.226;-97.150;2023-12-04T05:42:01;11.40;99.90
17740;DHT22;8990;33.226;-97.150;2023-12-04T05:44:32;11.50;99.90
17740;DHT22;8990;33.226;-97.150;2023-12-04T05:47:01;11.50;99.90
17740;DHT22;8990;33.226;-97.150;2023-12-04T05:49:30;11.40;99.90
17740;DHT22;8990;33.226;-97.150;2023-12-04T05:52:00;11.30;99.90
17740;DHT22;8990;33.226;-97.150;2023-12-04T05:54:29;11.10;99.90
17740;DHT22;8990;33.226;-97.150;2023-12-04T05:56:58;11.10;99.90
17740;DHT22;8990;33.226;-97.150;2023-12-04T05:59:27;11.00;99.90
17740;DHT22;8990;33.226;-97.150;2023-12-04T06:01:58;10.80;99.90
17740;DHT22;8990;33.226;-97.150;2023-12-04T06:04:27;10.70;99.90
17740;DHT22;8990;33.226;-97.150;2023-12-04T06:06:56;10.60;99.90
17740;DHT22;8990;33.226;-97.150;2023-12-04T06:09:25;10.70;99.90
17740;DHT22;8990;33.226;-97.150;2023-12-04T06:11:54;10.60;99.90
17740;DHT22;8990;33.226;-97.150;2023-12-04T06:14:23;10.50;99.90
17740;DHT22;8990;33.226;-97.150;2023-12-04T06:16:52;10.40;99.90
17740;DHT22;8990;33.226;-97.150;2023-12-04T06:19:22;10.40;99.90
17740;DHT22;8990;33.226;-97.150;2023-12-04T06:21:51;10.50;99.90
17740;DHT22;8990;33.226;-97.150;2023-12-04T06:24:21;10.50;99.90
17740;DHT22;8990;33.226;-97.150;2023-12-04T06:26:51;10.40;99.90
17740;DHT22;8990;33.226;-97.150;2023-12-04T06:29:21;10.40;99.90
17740;DHT22;8990;33.226;-97.150;2023-12-04T06:31:50;10.40;99.90
17740;DHT22;8990;33.226;-97.150;2023-12-04T06:34:22;10.30;99.90
17740;DHT22;8990;33.226;-97.150;2023-12-04T06:36:51;10.30;99.90
17740;DHT22;8990;33.226;-97.150;2023-12-04T06:39:21;10.20;99.90
17740;DHT22;8990;33.226;-97.150;2023-12-04T06:41:51;10.30;99.90
17740;DHT22;8990;33.226;-97.150;2023-12-04T06:44:21;10.10;99.90
17740;DHT22;8990;33.226;-97.150;2023-12-04T06:46:52;10.20;99.90
17740;DHT22;8990;33.226;-97.150;2023-12-04T06:49:24;10.00;99.90
17740;DHT22;8990;33.226;-97.150;2023-12-04T06:51:53;10.00;99.90
17740;DHT22;8990;33.226;-97.150;2023-12-04T06:54:22;10.10;99.90
17740;DHT22;8990;33.226;-97.150;2023-12-04T06:56:51;10.00;99.90
17740;DHT22;8990;33.226;-97.150;2023-12-04T06:59:21;9.90;99.90
17740;DHT22;8990;33.226;-97.150;2023-12-04T07:01:50;10.10;99.90
17740;DHT22;8990;33.226;-97.150;2023-12-04T07:04:19;10.00;99.90
17740;DHT22;8990;33.226;-97.150;2023-12-04T07:06:51;10.00;99.90
17740;DHT22;8990;33.226;-97.150;2023-12-04T07:09:20;10.10;99.90
17740;DHT22;8990;33.226;-97.150;2023-12-04T07:11:49;9.90;99.90
17740;DHT22;8990;33.226;-97.150;2023-12-04T07:14:19;10.00;99.90
17740;DHT22;8990;33.226;-97.150;2023-12-04T07:16:48;9.80;99.90
17740;DHT22;8990;33.226;-97.150;2023-12-04T07:19:17;10.00;99.90
17740;DHT22;8990;33.226;-97.150;2023-12-04T07:21:47;9.90;99.90
17740;DHT22;8990;33.226;-97.150;2023-12-04T07:24:18;9.90;99.90
17740;DHT22;8990;33.226;-97.150;2023-12-04T07:26:47;9.70;99.90
17740;DHT22;8990;33.226;-97.150;2023-12-04T07:29:17;9.60;99.90
17740;DHT22;8990;33.226;-97.150;2023-12-04T07:31:46;9.60;99.90
17740;DHT22;8990;33.226;-97.150;2023-12-04T07:34:15;9.50;99.90
17740;DHT22;8990;33.226;-97.150;2023-12-04T07:36:44;9.40;99.90
17740;DHT22;8990;33.226;-97.150;2023-12-04T07:39:13;9.40;99.90
17740;DHT22;8990;33.226;-97.150;2023-12-04T07:41:44;9.40;99.90
17740;DHT22;8990;33.226;-97.150;2023-12-04T07:44:13;9.30;99.90
17740;DHT22;8990;33.226;-97.150;2023-12-04T07:46:42;9.30;99.90
17740;DHT22;8990;33.226;-97.150;2023-12-04T07:49:11;9.30;99.90
17740;DHT22;8990;33.226;-97.150;2023-12-04T07:51:40;9.30;99.90
17740;DHT22;8990;33.226;-97.150;2023-12-04T07:54:09;9.10;99.90
17740;DHT22;8990;33.226;-97.150;2023-12-04T07:56:38;9.00;99.90
17740;DHT22;8990;33.226;-97.150;2023-12-04T07:59:09;8.90;99.90
17740;DHT22;8990;33.226;-97.150;2023-12-04T08:01:38;8.70;99.90
17740;DHT22;8990;33.226;-97.150;2023-12-04T08:04:07;8.80;99.90
17740;DHT22;8990;33.226;-97.150;2023-12-04T08:06:36;8.90;99.90
17740;DHT22;8990;33.226;-97.150;2023-12-04T08:09:05;8.70;99.90
17740;DHT22;8990;33.226;-97.150;2023-12-04T08:11:37;8.70;99.90
17740;DHT22;8990;33.226;-97.150;2023-12-04T08:14:06;8.50;99.90
17740;DHT22;8990;33.226;-97.150;2023-12-04T08:16:37;8.60;99.90
17740;DHT22;8990;33.226;-97.150;2023-12-04T08:19:06;8.40;99.90
17740;DHT22;8990;33.226;-97.150;2023-12-04T08:21:35;8.40;99.90
17740;DHT22;8990;33.226;-97.150;2023-12-04T08:24:04;8.20;99.90
17740;DHT22;8990;33.226;-97.150;2023-12-04T08:26:33;8.20;99.90
17740;DHT22;8990;33.226;-97.150;2023-12-04T08:29:03;8.30;99.90
17740;DHT22;8990;33.226;-97.150;2023-12-04T08:31:31;8.20;99.90
17740;DHT22;8990;33.226;-97.150;2023-12-04T08:34:02;8.10;99.90
17740;DHT22;8990;33.226;-97.150;2023-12-04T08:36:31;8.20;99.90
17740;DHT22;8990;33.226;-97.150;2023-12-04T08:39:00;8.10;99.90
17740;DHT22;8990;33.226;-97.150;2023-12-04T08:41:31;8.10;99.90
17740;DHT22;8990;33.226;-97.150;2023-12-04T08:44:00;8.00;99.90
17740;DHT22;8990;33.226;-97.150;2023-12-04T08:46:29;7.90;99.90
17740;DHT22;8990;33.226;-97.150;2023-12-04T08:48:58;8.10;99.90
17740;DHT22;8990;33.226;-97.150;2023-12-04T08:51:29;8.00;99.90
17740;DHT22;8990;33.226;-97.150;2023-12-04T08:53:58;8.00;99.90
17740;DHT22;8990;33.226;-97.150;2023-12-04T08:56:27;7.90;99.90
17740;DHT22;8990;33.226;-97.150;2023-12-04T08:58:56;7.90;99.90
17740;DHT22;8990;33.226;-97.150;2023-12-04T09:01:25;7.90;99.90
17740;DHT22;8990;33.226;-97.150;2023-12-04T09:03:54;8.00;99.90
17740;DHT22;8990;33.226;-97.150;2023-12-04T09:06:23;7.90;99.90
17740;DHT22;8990;33.226;-97.150;2023-12-04T09:08:54;7.80;99.90
17740;DHT22;8990;33.226;-97.150;2023-12-04T09:11:23;7.90;99.90
17740;DHT22;8990;33.226;-97.150;2023-12-04T09:13:52;7.90;99.90
17740;DHT22;8990;33.226;-97.150;2023-12-04T09:16:21;7.80;99.90
17740;DHT22;8990;33.226;-97.150;2023-12-04T09:18:50;7.80;99.90
17740;DHT22;8990;33.226;-97.150;2023-12-04T09:21:20;7.80;99.90
17740;DHT22;8990;33.226;-97.150;2023-12-04T09:23:49;7.80;99.90
17740;DHT22;8990;33.226;-97.150;2023-12-04T09:26:20;7.80;99.90
17740;DHT22;8990;33.226;-97.150;2023-12-04T09:28:49;7.90;99.90
17740;DHT22;8990;33.226;-97.150;2023-12-04T09:31:18;7.90;99.90
17740;DHT22;8990;33.226;-97.150;2023-12-04T09:33:47;7.90;99.90
17740;DHT22;8990;33.226;-97.150;2023-12-04T09:36:16;7.70;99.90
17740;DHT22;8990;33.226;-97.150;2023-12-04T09:38:45;7.80;99.90
17740;DHT22;8990;33.226;-97.150;2023-12-04T09:41:15;7.70;99.90
17740;DHT22;8990;33.226;-97.150;2023-12-04T09:43:47;7.80;99.90
17740;DHT22;8990;33.226;-97.150;2023-12-04T09:46:17;7.70;99.90
17740;DHT22;8990;33.226;-97.150;2023-12-04T09:48:46;7.50;99.90
17740;DHT22;8990;33.226;-97.150;2023-12-04T09:51:16;7.60;99.90
17740;DHT22;8990;33.226;-97.150;2023-12-04T09:53:48;7.60;99.90
17740;DHT22;8990;33.226;-97.150;2023-12-04T09:56:18;7.60;99.90
17740;DHT22;8990;33.226;-97.150;2023-12-04T09:58:51;7.40;99.90
17740;DHT22;8990;33.226;-97.150;2023-12-04T10:01:21;7.50;99.90
17740;DHT22;8990;33.226;-97.150;2023-12-04T10:03:51;7.40;99.90
17740;DHT22;8990;33.226;-97.150;2023-12-04T10:06:20;7.40;99.90
17740;DHT22;8990;33.226;-97.150;2023-12-04T10:08:49;7.40;99.90
17740;DHT22;8990;33.226;-97.150;2023-12-04T10:11:18;7.60;99.90
17740;DHT22;8990;33.226;-97.150;2023-12-04T10:13:49;7.50;99.90
17740;DHT22;8990;33.226;-97.150;2023-12-04T10:16:32;7.50;99.90
17740;DHT22;8990;33.226;-97.150;2023-12-04T10:19:15;7.40;99.90
17740;DHT22;8990;33.226;-97.150;2023-12-04T10:21:45;7.40;99.90
17740;DHT22;8990;33.226;-97.150;2023-12-04T10:24:30;7.40;99.90
17740;DHT22;8990;33.226;-97.150;2023-12-04T10:27:00;7.30;99.90
17740;DHT22;8990;33.226;-97.150;2023-12-04T10:29:41;7.30;99.90
17740;DHT22;8990;33.226;-97.150;2023-12-04T10:32:11;7.30;99.90
17740;DHT22;8990;33.226;-97.150;2023-12-04T10:34:42;7.30;99.90
17740;DHT22;8990;33.226;-97.150;2023-12-04T10:37:11;7.10;99.90
17740;DHT22;8990;33.226;-97.150;2023-12-04T10:39:47;7.10;99.90
17740;DHT22;8990;33.226;-97.150;2023-12-04T10:42:27;7.10;99.90
17740;DHT22;8990;33.226;-97.150;2023-12-04T10:44:59;7.20;99.90
17740;DHT22;8990;33.226;-97.150;2023-12-04T10:47:29;7.10;99.90
17740;DHT22;8990;33.226;-97.150;2023-12-04T10:49:59;7.00;99.90
17740;DHT22;8990;33.226;-97.150;2023-12-04T10:52:30;6.90;99.90
17740;DHT22;8990;33.226;-97.150;2023-12-04T10:54:59;6.80;99.90
17740;DHT22;8990;33.226;-97.150;2023-12-04T10:57:33;6.80;99.90
17740;DHT22;8990;33.226;-97.150;2023-12-04T11:00:09;6.80;99.90
17740;DHT22;8990;33.226;-97.150;2023-12-04T11:02:43;7.00;99.90
17740;DHT22;8990;33.226;-97.150;2023-12-04T11:05:16;6.90;99.90
17740;DHT22;8990;33.226;-97.150;2023-12-04T11:07:50;7.00;99.90
17740;DHT22;8990;33.226;-97.150;2023-12-04T11:10:22;6.70;99.90
17740;DHT22;8990;33.226;-97.150;2023-12-04T11:12:56;6.60;99.90
17740;DHT22;8990;33.226;-97.150;2023-12-04T11:15:30;6.50;99.90
17740;DHT22;8990;33.226;-97.150;2023-12-04T11:18:00;6.40;99.90
17740;DHT22;8990;33.226;-97.150;2023-12-04T11:20:32;6.60;99.90
17740;DHT22;8990;33.226;-97.150;2023-12-04T11:23:04;6.40;99.90
17740;DHT22;8990;33.226;-97.150;2023-12-04T11:25:35;6.40;99.90
17740;DHT22;8990;33.226;-97.150;2023-12-04T11:28:04;6.20;99.90
17740;DHT22;8990;33.226;-97.150;2023-12-04T11:30:36;6.20;99.90
17740;DHT22;8990;33.226;-97.150;2023-12-04T11:33:05;6.10;99.90
17740;DHT22;8990;33.226;-97.150;2023-12-04T11:35:34;6.10;99.90
17740;DHT22;8990;33.226;-97.150;2023-12-04T11:38:05;6.10;99.90
17740;DHT22;8990;33.226;-97.150;2023-12-04T11:40:36;6.00;99.90
17740;DHT22;8990;33.226;-97.150;2023-12-04T11:43:22;6.20;99.90
17740;DHT22;8990;33.226;-97.150;2023-12-04T11:45:53;6.10;99.90
17740;DHT22;8990;33.226;-97.150;2023-12-04T11:48:36;5.90;99.90
17740;DHT22;8990;33.226;-97.150;2023-12-04T11:51:07;5.90;99.90
17740;DHT22;8990;33.226;-97.150;2023-12-04T11:53:39;5.90;99.90
17740;DHT22;8990;33.226;-97.150;2023-12-04T11:56:12;5.90;99.90
17740;DHT22;8990;33.226;-97.150;2023-12-04T11:58:45;5.80;99.90
17740;DHT22;8990;33.226;-97.150;2023-12-04T12:01:17;5.80;99.90
17740;DHT22;8990;33.226;-97.150;2023-12-04T12:03:51;5.80;99.90
17740;DHT22;8990;33.226;-97.150;2023-12-04T12:06:21;5.90;99.90
17740;DHT22;8990;33.226;-97.150;2023-12-04T12:08:50;5.90;99.90
17740;DHT22;8990;33.226;-97.150;2023-12-04T12:13:48;5.80;99.90
17740;DHT22;8990;33.226;-97.150;2023-12-04T12:16:20;5.70;99.90
17740;DHT22;8990;33.226;-97.150;2023-12-04T12:18:49;5.70;99.90
17740;DHT22;8990;33.226;-97.150;2023-12-04T12:21:18;5.60;99.90
17740;DHT22;8990;33.226;-97.150;2023-12-04T12:23:47;5.70;99.90
17740;DHT22;8990;33.226;-97.150;2023-12-04T12:26:16;5.70;99.90
17740;DHT22;8990;33.226;-97.150;2023-12-04T12:28:46;5.70;99.90
17740;DHT22;8990;33.226;-97.150;2023-12-04T12:31:16;5.70;99.90
17740;DHT22;8990;33.226;-97.150;2023-12-04T12:33:46;5.70;99.90
17740;DHT22;8990;33.226;-97.150;2023-12-04T12:36:15;5.70;99.90
17740;DHT22;8990;33.226;-97.150;2023-12-04T12:38:45;5.80;99.90
17740;DHT22;8990;33.226;-97.150;2023-12-04T12:41:17;5.80;99.90
17740;DHT22;8990;33.226;-97.150;2023-12-04T12:43:47;5.80;99.90
17740;DHT22;8990;33.226;-97.150;2023-12-04T12:46:19;5.80;99.90
17740;DHT22;8990;33.226;-97.150;2023-12-04T12:48:51;5.60;99.90
17740;DHT22;8990;33.226;-97.150;2023-12-04T12:51:21;5.80;99.90
17740;DHT22;8990;33.226;-97.150;2023-12-04T12:53:50;5.60;99.90
17740;DHT22;8990;33.226;-97.150;2023-12-04T12:56:19;5.60;99.90
17740;DHT22;8990;33.226;-97.150;2023-12-04T12:58:48;5.60;99.90
17740;DHT22;8990;33.226;-97.150;2023-12-04T13:01:18;5.50;99.90
17740;DHT22;8990;33.226;-97.150;2023-12-04T13:03:49;5.50;99.90
17740;DHT22;8990;33.226;-97.150;2023-12-04T13:06:18;5.50;99.90
17740;DHT22;8990;33.226;-97.150;2023-12-04T13:08:47;5.50;99.90
17740;DHT22;8990;33.226;-97.150;2023-12-04T13:11:16;5.50;99.90
17740;DHT22;8990;33.226;-97.150;2023-12-04T13:13:45;5.50;99.90
17740;DHT22;8990;33.226;-97.150;2023-12-04T13:16:14;5.60;99.90
17740;DHT22;8990;33.226;-97.150;2023-12-04T13:18:44;5.50;99.90
17740;DHT22;8990;33.226;-97.150;2023-12-04T13:21:15;5.70;99.90
17740;DHT22;8990;33.226;-97.150;2023-12-04T13:23:44;5.70;99.90
17740;DHT22;8990;33.226;-97.150;2023-12-04T13:26:13;5.50;99.90
17740;DHT22;8990;33.226;-97.150;2023-12-04T13:28:42;5.60;99.90
17740;DHT22;8990;33.226;-97.150;2023-12-04T13:31:11;5.70;99.90
17740;DHT22;8990;33.226;-97.150;2023-12-04T13:33:40;5.70;99.90
17740;DHT22;8990;33.226;-97.150;2023-12-04T13:36:10;5.80;99.90
17740;DHT22;8990;33.226;-97.150;2023-12-04T13:38:42;5.90;99.90
17740;DHT22;8990;33.226;-97.150;2023-12-04T13:41:11;5.90;99.90
17740;DHT22;8990;33.226;-97.150;2023-12-04T13:44:07;6.00;99.90
17740;DHT22;8990;33.226;-97.150;2023-12-04T13:46:35;6.20;99.90
17740;DHT22;8990;33.226;-97.150;2023-12-04T13:49:04;6.10;99.90
17740;DHT22;8990;33.226;-97.150;2023-12-04T13:51:33;6.20;99.90
17740;DHT22;8990;33.226;-97.150;2023-12-04T13:54:08;6.40;99.90
17740;DHT22;8990;33.226;-97.150;2023-12-04T13:56:48;6.60;99.90
17740;DHT22;8990;33.226;-97.150;2023-12-04T13:59:24;6.70;99.90
17740;DHT22;8990;33.226;-97.150;2023-12-04T14:01:54;6.80;99.90
17740;DHT22;8990;33.226;-97.150;2023-12-04T14:04:27;6.90;99.90
17740;DHT22;8990;33.226;-97.150;2023-12-04T14:06:57;7.00;99.90
17740;DHT22;8990;33.226;-97.150;2023-12-04T14:09:28;7.10;99.90
17740;DHT22;8990;33.226;-97.150;2023-12-04T14:11:57;7.20;99.90
17740;DHT22;8990;33.226;-97.150;2023-12-04T14:14:25;7.30;99.90
17740;DHT22;8990;33.226;-97.150;2023-12-04T14:16:54;7.50;99.90
17740;DHT22;8990;33.226;-97.150;2023-12-04T14:19:24;7.60;99.90
17740;DHT22;8990;33.226;-97.150;2023-12-04T14:21:53;7.70;99.90
17740;DHT22;8990;33.226;-97.150;2023-12-04T14:24:22;7.80;99.90
17740;DHT22;8990;33.226;-97.150;2023-12-04T14:26:53;8.00;99.90
17740;DHT22;8990;33.226;-97.150;2023-12-04T14:29:22;8.10;99.90
17740;DHT22;8990;33.226;-97.150;2023-12-04T14:31:51;8.20;99.90
17740;DHT22;8990;33.226;-97.150;2023-12-04T14:34:20;8.20;99.90
17740;DHT22;8990;33.226;-97.150;2023-12-04T14:36:49;8.30;99.90
17740;DHT22;8990;33.226;-97.150;2023-12-04T14:39:18;8.30;99.90
17740;DHT22;8990;33.226;-97.150;2023-12-04T14:41:47;8.40;99.90
17740;DHT22;8990;33.226;-97.150;2023-12-04T14:44:18;8.50;99.90
17740;DHT22;8990;33.226;-97.150;2023-12-04T14:46:47;8.60;99.90
17740;DHT22;8990;33.226;-97.150;2023-12-04T14:49:16;8.70;99.90
17740;DHT22;8990;33.226;-97.150;2023-12-04T14:51:45;8.80;99.90
17740;DHT22;8990;33.226;-97.150;2023-12-04T14:54:15;8.90;99.90
17740;DHT22;8990;33.226;-97.150;2023-12-04T14:56:48;8.90;99.90
17740;DHT22;8990;33.226;-97.150;2023-12-04T14:59:36;9.00;99.90
17740;DHT22;8990;33.226;-97.150;2023-12-04T15:02:21;9.10;99.90
17740;DHT22;8990;33.226;-97.150;2023-12-04T15:05:12;9.20;99.90
17740;DHT22;8990;33.226;-97.150;2023-12-04T15:08:01;9.40;99.90
17740;DHT22;8990;33.226;-97.150;2023-12-04T15:11:06;9.50;99.90
17740;DHT22;8990;33.226;-97.150;2023-12-04T15:14:12;9.60;99.90
17740;DHT22;8990;33.226;-97.150;2023-12-04T15:16:59;9.70;99.90
17740;DHT22;8990;33.226;-97.150;2023-12-04T15:19:44;9.80;99.90
17740;DHT22;8990;33.226;-97.150;2023-12-04T15:22:44;9.90;99.90
17740;DHT22;8990;33.226;-97.150;2023-12-04T15:25:12;9.90;99.90
17740;DHT22;8990;33.226;-97.150;2023-12-04T15:27:43;10.00;99.90
17740;DHT22;8990;33.226;-97.150;2023-12-04T15:30:11;10.10;99.90
17740;DHT22;8990;33.226;-97.150;2023-12-04T15:32:43;10.20;99.90
17740;DHT22;8990;33.226;-97.150;2023-12-04T15:35:10;10.30;99.90
17740;DHT22;8990;33.226;-97.150;2023-12-04T15:37:39;10.40;99.90
17740;DHT22;8990;33.226;-97.150;2023-12-04T15:40:07;10.50;99.90
17740;DHT22;8990;33.226;-97.150;2023-12-04T15:42:38;10.60;99.90
17740;DHT22;8990;33.226;-97.150;2023-12-04T15:45:06;10.60;99.90